Time;durP1;ratioP1;P1;durP2;ratioP2;P2;SDS_P1;SDS_P2;PMS_P1;PMS_P2;Temp;Humidity;BMP_temperature;BMP_pressure;BME280_temperature;BME280_humidity;BME280_pressure;Samples;Min_cycle;Max_cycle;Signal;HPM_P1;HPM_P2
2023/05/06 00:02:07;;;;;;;5.30;2.38;;;12.40;99.90;;;;;;5041992;28;20211;-33
2023/05/06 00:04:33;;;;;;;4.40;2.60;;;12.40;99.90;;;;;;5036930;28;20436;-33
2023/05/06 00:06:59;;;;;;;5.30;2.75;;;12.40;99.90;;;;;;5024314;28;20076;-33
2023/05/06 00:09:24;;;;;;;5.20;2.63;;;12.40;99.90;;;;;;5028934;28;20415;-34
2023/05/06 00:11:50;;;;;;;4.55;2.40;;;12.50;99.90;;;;;;5030732;28;20791;-33
2023/05/06 00:14:16;;;;;;;5.32;2.30;;;12.50;99.90;;;;;;5028272;28;20534;-33
2023/05/06 00:16:41;;;;;;;3.58;2.00;;;12.50;99.90;;;;;;5034150;28;20068;-33
2023/05/06 00:19:07;;;;;;;5.60;3.15;;;12.50;99.90;;;;;;5019370;28;20073;-34
2023/05/06 00:21:33;;;;;;;5.25;2.63;;;12.50;99.90;;;;;;5032196;28;20111;-34
2023/05/06 00:23:58;;;;;;;4.97;2.53;;;12.50;99.90;;;;;;5030362;28;20045;-34
2023/05/06 00:26:24;;;;;;;11.10;2.85;;;12.50;99.90;;;;;;5027288;28;20408;-34
2023/05/06 00:28:50;;;;;;;5.35;2.17;;;12.40;99.90;;;;;;5027229;28;20059;-34
2023/05/06 00:31:15;;;;;;;4.85;2.92;;;12.40;99.90;;;;;;5031797;28;20076;-34
2023/05/06 00:33:43;;;;;;;6.28;3.47;;;12.40;99.90;;;;;;5019302;28;20037;-34
2023/05/06 00:36:08;;;;;;;5.30;3.13;;;12.40;99.90;;;;;;5009744;28;20121;-34
2023/05/06 00:38:34;;;;;;;5.80;3.20;;;12.40;99.90;;;;;;5016246;28;20058;-33
2023/05/06 00:41:00;;;;;;;5.78;3.10;;;12.40;99.90;;;;;;5008639;28;20061;-33
2023/05/06 00:43:26;;;;;;;5.47;3.00;;;12.40;99.90;;;;;;5010489;28;20067;-34
2023/05/06 00:45:51;;;;;;;5.50;3.05;;;12.40;99.90;;;;;;5028969;28;20064;-34
2023/05/06 00:48:17;;;;;;;4.28;2.72;;;12.30;99.90;;;;;;5008315;28;20057;-34
2023/05/06 00:50:44;;;;;;;4.85;2.63;;;12.30;99.90;;;;;;5026538;28;20049;-34
2023/05/06 00:53:10;;;;;;;5.43;2.92;;;12.30;99.90;;;;;;5020359;28;20553;-33
2023/05/06 00:55:37;;;;;;;5.03;2.67;;;12.20;99.90;;;;;;5014234;28;20709;-34
2023/05/06 00:58:04;;;;;;;3.85;2.40;;;12.20;99.90;;;;;;5014782;28;20063;-34
2023/05/06 01:00:29;;;;;;;6.45;3.33;;;12.20;99.90;;;;;;5032893;28;20490;-34
2023/05/06 01:02:55;;;;;;;6.43;3.47;;;12.20;99.90;;;;;;5031612;28;20111;-33
2023/05/06 01:05:22;;;;;;;5.82;3.30;;;12.20;99.90;;;;;;5040563;28;20088;-34
2023/05/06 01:08:00;;;;;;;5.78;3.35;;;12.20;99.90;;;;;;5028252;28;20057;-33
2023/05/06 01:10:30;;;;;;;4.28;2.78;;;12.10;99.90;;;;;;5036122;28;22106;-34
2023/05/06 01:13:02;;;;;;;4.63;2.60;;;12.10;99.90;;;;;;5023361;28;20049;-34
2023/05/06 01:15:36;;;;;;;6.82;3.20;;;12.10;99.90;;;;;;5017876;28;20110;-34
2023/05/06 01:18:08;;;;;;;10.85;2.83;;;12.00;99.90;;;;;;5032131;28;20783;-34
2023/05/06 01:20:37;;;;;;;4.05;2.65;;;12.00;99.90;;;;;;5032005;28;20049;-33
2023/05/06 01:23:08;;;;;;;4.07;2.50;;;11.90;99.90;;;;;;5032282;28;20052;-34
2023/05/06 01:25:34;;;;;;;4.38;2.70;;;11.90;99.90;;;;;;5025810;28;20042;-33
2023/05/06 01:28:00;;;;;;;5.28;3.42;;;12.00;99.90;;;;;;5037288;28;20461;-33
2023/05/06 01:30:32;;;;;;;5.93;3.30;;;12.00;99.90;;;;;;5031287;28;20045;-34
2023/05/06 01:33:06;;;;;;;5.30;3.33;;;11.90;99.90;;;;;;5023276;28;20053;-33
2023/05/06 01:35:41;;;;;;;5.82;3.05;;;12.00;99.90;;;;;;5021042;28;20053;-34
2023/05/06 01:38:28;;;;;;;5.70;3.50;;;12.00;99.90;;;;;;5026389;28;20053;-33
2023/05/06 01:40:55;;;;;;;5.75;3.55;;;12.00;99.90;;;;;;5037208;28;20139;-34
2023/05/06 01:43:27;;;;;;;7.25;3.60;;;12.00;99.90;;;;;;5045447;28;20048;-33
2023/05/06 01:45:54;;;;;;;6.50;3.65;;;12.00;99.90;;;;;;5032847;28;20062;-33
2023/05/06 01:48:26;;;;;;;6.35;3.35;;;12.00;99.90;;;;;;5031060;28;20517;-33
2023/05/06 01:50:52;;;;;;;6.45;3.60;;;12.00;99.90;;;;;;5037387;28;20356;-33
2023/05/06 01:53:18;;;;;;;7.18;3.88;;;11.90;99.90;;;;;;5046471;28;20110;-34
2023/05/06 01:55:44;;;;;;;6.57;4.00;;;11.90;99.90;;;;;;5036614;28;20103;-34
2023/05/06 01:58:09;;;;;;;7.20;4.13;;;11.90;99.90;;;;;;5036347;28;20091;-33
2023/05/06 02:00:37;;;;;;;6.68;3.88;;;11.90;99.90;;;;;;5044273;28;20042;-34
2023/05/06 02:03:02;;;;;;;6.43;3.95;;;11.80;99.90;;;;;;5017557;28;20518;-33
2023/05/06 02:05:28;;;;;;;6.85;4.25;;;11.80;99.90;;;;;;5035792;28;20057;-33
2023/05/06 02:07:54;;;;;;;7.32;4.40;;;11.80;99.90;;;;;;5025863;28;20054;-33
2023/05/06 02:10:19;;;;;;;8.85;4.25;;;11.80;99.90;;;;;;5016513;28;20080;-34
2023/05/06 02:12:45;;;;;;;7.22;3.90;;;11.70;99.90;;;;;;5023449;28;20049;-33
2023/05/06 02:15:11;;;;;;;7.25;4.00;;;11.70;99.90;;;;;;5022911;28;20071;-33
2023/05/06 02:17:37;;;;;;;5.95;3.72;;;11.70;99.90;;;;;;5024526;28;20124;-33
2023/05/06 02:20:04;;;;;;;7.53;4.55;;;11.70;99.90;;;;;;5012096;28;20042;-34
2023/05/06 02:22:30;;;;;;;5.85;3.80;;;11.70;99.90;;;;;;5024356;28;20475;-34
2023/05/06 02:24:56;;;;;;;7.82;4.00;;;11.70;99.90;;;;;;5013904;28;20053;-33
2023/05/06 02:27:21;;;;;;;7.15;4.32;;;11.60;99.90;;;;;;5036955;28;20427;-33
2023/05/06 02:29:47;;;;;;;7.00;4.30;;;11.60;99.90;;;;;;5025277;28;20053;-33
2023/05/06 02:32:13;;;;;;;6.35;3.90;;;11.60;99.90;;;;;;5038143;28;20560;-33
2023/05/06 02:34:39;;;;;;;7.85;4.97;;;11.50;99.90;;;;;;5038946;28;20522;-33
2023/05/06 02:37:04;;;;;;;7.53;4.65;;;11.50;99.90;;;;;;5021413;28;20042;-33
2023/05/06 02:39:30;;;;;;;7.75;4.82;;;11.50;99.90;;;;;;5028941;28;20061;-33
2023/05/06 02:41:55;;;;;;;7.35;4.20;;;11.50;99.90;;;;;;5020726;28;20392;-33
2023/05/06 02:44:21;;;;;;;8.25;4.30;;;11.50;99.90;;;;;;5022282;28;20053;-33
2023/05/06 02:46:46;;;;;;;8.07;4.93;;;11.40;99.90;;;;;;5022336;28;20045;-33
2023/05/06 02:49:12;;;;;;;7.75;4.75;;;11.40;99.90;;;;;;5028192;28;20503;-33
2023/05/06 02:51:38;;;;;;;9.25;4.80;;;11.30;99.90;;;;;;5048583;28;20148;-33
2023/05/06 02:54:03;;;;;;;6.82;4.10;;;11.30;99.90;;;;;;5040300;28;20061;-33
2023/05/06 02:56:30;;;;;;;7.68;4.43;;;11.30;99.90;;;;;;5033636;28;20088;-33
2023/05/06 02:58:55;;;;;;;8.27;5.38;;;11.20;99.90;;;;;;5021224;28;20519;-33
2023/05/06 03:01:21;;;;;;;9.10;5.38;;;11.20;99.90;;;;;;5048517;28;20060;-33
2023/05/06 03:03:47;;;;;;;9.07;5.72;;;11.20;99.90;;;;;;5046263;28;20079;-33
2023/05/06 03:06:12;;;;;;;8.73;5.22;;;11.10;99.90;;;;;;5027097;28;20140;-34
2023/05/06 03:08:38;;;;;;;8.35;5.20;;;11.10;99.90;;;;;;5020246;28;20601;-33
2023/05/06 03:11:04;;;;;;;9.10;5.72;;;11.10;99.90;;;;;;5016479;28;20054;-33
2023/05/06 03:13:29;;;;;;;8.65;5.80;;;11.10;99.90;;;;;;5026890;28;20042;-33
2023/05/06 03:15:55;;;;;;;9.23;5.28;;;11.10;99.90;;;;;;5019820;28;20411;-33
2023/05/06 03:18:21;;;;;;;9.25;5.72;;;11.10;99.90;;;;;;5022456;28;20654;-33
2023/05/06 03:20:50;;;;;;;8.48;5.00;;;11.00;99.90;;;;;;5016994;28;20041;-33
2023/05/06 03:23:15;;;;;;;7.32;4.88;;;11.00;99.90;;;;;;5022543;28;20488;-33
2023/05/06 03:25:41;;;;;;;10.63;6.32;;;10.90;99.90;;;;;;5018463;28;20053;-33
2023/05/06 03:28:07;;;;;;;9.35;6.05;;;10.90;99.90;;;;;;5013494;28;20507;-33
2023/05/06 03:30:32;;;;;;;10.10;6.70;;;10.90;99.90;;;;;;5014518;28;20535;-33
2023/05/06 03:33:01;;;;;;;9.82;5.35;;;10.80;99.90;;;;;;5021005;28;20491;-33
2023/05/06 03:35:27;;;;;;;7.95;4.85;;;10.80;99.90;;;;;;5020688;28;20053;-33
2023/05/06 03:37:53;;;;;;;8.52;5.22;;;10.70;99.90;;;;;;5016210;28;20049;-33
2023/05/06 03:40:18;;;;;;;9.30;6.20;;;10.80;99.90;;;;;;5016934;28;20826;-33
2023/05/06 03:42:44;;;;;;;8.52;4.32;;;10.80;99.90;;;;;;5028632;28;20103;-33
2023/05/06 03:45:10;;;;;;;8.48;5.15;;;10.70;99.90;;;;;;5014260;28;20163;-33
2023/05/06 03:47:36;;;;;;;6.60;4.40;;;10.70;99.90;;;;;;5025273;28;20511;-33
2023/05/06 03:50:02;;;;;;;8.50;5.28;;;10.70;99.90;;;;;;5033727;28;20556;-33
2023/05/06 03:52:28;;;;;;;9.10;5.78;;;10.60;99.90;;;;;;5028317;28;20815;-33
2023/05/06 03:54:53;;;;;;;8.35;5.65;;;10.60;99.90;;;;;;5013478;28;20144;-33
2023/05/06 03:57:19;;;;;;;7.97;5.25;;;10.60;99.90;;;;;;5022102;28;20111;-33
2023/05/06 03:59:45;;;;;;;8.38;5.15;;;10.60;99.90;;;;;;5026323;28;20527;-33
2023/05/06 04:02:10;;;;;;;9.48;6.10;;;10.60;99.90;;;;;;5025070;28;20061;-33
2023/05/06 04:04:36;;;;;;;9.02;5.80;;;10.60;99.90;;;;;;5033797;28;20053;-33
2023/05/06 04:07:02;;;;;;;8.82;5.45;;;10.60;99.90;;;;;;5013165;28;20049;-33
2023/05/06 04:09:28;;;;;;;8.07;5.07;;;10.50;99.90;;;;;;5012843;28;20083;-33
2023/05/06 04:11:54;;;;;;;8.73;4.45;;;10.50;99.90;;;;;;5034992;28;20097;-33
2023/05/06 04:14:19;;;;;;;7.07;4.50;;;10.50;99.90;;;;;;5017202;28;22493;-33
2023/05/06 04:16:45;;;;;;;8.13;4.88;;;10.50;99.90;;;;;;5015786;28;20052;-33
2023/05/06 04:19:10;;;;;;;7.88;5.10;;;10.50;99.90;;;;;;5021255;28;20498;-33
2023/05/06 04:21:36;;;;;;;9.40;4.82;;;10.60;99.90;;;;;;5029104;28;20145;-33
2023/05/06 04:24:02;;;;;;;6.10;3.95;;;10.60;99.90;;;;;;5011558;28;20049;-33
2023/05/06 04:26:28;;;;;;;7.57;4.40;;;10.60;99.90;;;;;;5024266;28;20054;-33
2023/05/06 04:28:54;;;;;;;5.57;3.55;;;10.60;99.90;;;;;;5030760;28;20052;-33
2023/05/06 04:31:20;;;;;;;8.30;4.45;;;10.60;99.90;;;;;;5011789;28;20049;-33
2023/05/06 04:33:45;;;;;;;7.32;4.32;;;10.70;99.90;;;;;;5027009;28;20060;-33
2023/05/06 04:36:12;;;;;;;8.70;5.38;;;10.70;99.90;;;;;;5036694;28;20065;-33
2023/05/06 04:38:37;;;;;;;9.27;5.57;;;10.80;99.90;;;;;;5024257;28;20510;-33
2023/05/06 04:41:04;;;;;;;8.77;5.75;;;10.90;99.90;;;;;;5015422;28;20050;-33
2023/05/06 04:43:30;;;;;;;9.30;5.90;;;11.00;99.90;;;;;;5028029;28;20509;-33
2023/05/06 04:45:56;;;;;;;8.27;4.78;;;11.10;99.90;;;;;;5024170;28;20144;-33
2023/05/06 04:48:22;;;;;;;8.65;6.05;;;11.10;99.90;;;;;;5022805;28;20050;-33
2023/05/06 04:50:48;;;;;;;9.85;6.63;;;11.20;99.90;;;;;;5035912;28;20034;-33
2023/05/06 04:53:14;;;;;;;10.23;6.55;;;11.20;99.90;;;;;;5031910;28;20051;-33
2023/05/06 04:55:41;;;;;;;8.40;5.63;;;11.30;99.90;;;;;;5036644;28;20140;-33
2023/05/06 04:58:07;;;;;;;8.02;5.53;;;11.40;99.90;;;;;;5028778;28;20150;-33
2023/05/06 05:00:33;;;;;;;9.68;6.32;;;11.40;99.90;;;;;;5020455;28;20491;-33
2023/05/06 05:03:00;;;;;;;7.47;5.15;;;11.60;99.90;;;;;;5036904;28;20515;-33
2023/05/06 05:05:27;;;;;;;8.95;6.13;;;11.70;99.90;;;;;;5029534;28;20479;-33
2023/05/06 05:07:53;;;;;;;12.27;7.03;;;11.70;99.90;;;;;;5034094;28;20049;-33
2023/05/06 05:10:18;;;;;;;10.18;7.07;;;11.80;99.90;;;;;;5033165;28;20072;-33
2023/05/06 05:12:45;;;;;;;8.45;5.53;;;11.90;99.90;;;;;;5032601;28;20053;-33
2023/05/06 05:15:11;;;;;;;9.30;6.47;;;11.90;99.90;;;;;;5017779;28;20053;-33
2023/05/06 05:17:36;;;;;;;11.20;8.10;;;11.90;99.90;;;;;;5017739;28;20053;-33
2023/05/06 05:20:03;;;;;;;10.88;7.20;;;11.90;99.90;;;;;;5019381;28;20136;-33
2023/05/06 05:22:29;;;;;;;10.32;6.85;;;11.90;99.90;;;;;;5021531;28;20057;-33
2023/05/06 05:24:55;;;;;;;12.35;7.63;;;11.90;99.90;;;;;;5018001;28;20054;-33
2023/05/06 05:27:20;;;;;;;13.70;9.10;;;11.90;99.90;;;;;;5030936;28;20233;-33
2023/05/06 05:29:46;;;;;;;13.45;9.02;;;12.00;99.90;;;;;;5033472;28;20053;-33
2023/05/06 05:32:12;;;;;;;12.77;8.85;;;12.00;99.90;;;;;;5030675;28;20120;-33
2023/05/06 05:34:37;;;;;;;12.00;7.68;;;12.00;99.90;;;;;;5022826;28;20053;-33
2023/05/06 05:37:03;;;;;;;12.65;8.95;;;12.10;99.90;;;;;;5036053;28;20049;-33
2023/05/06 05:39:29;;;;;;;13.05;8.68;;;12.10;99.90;;;;;;5013997;28;20049;-32
2023/05/06 05:41:54;;;;;;;16.48;9.00;;;12.10;99.90;;;;;;5021522;28;20122;-33
2023/05/06 05:44:20;;;;;;;13.25;8.63;;;12.20;99.90;;;;;;5026923;28;20049;-32
2023/05/06 05:46:45;;;;;;;13.00;8.57;;;12.30;99.90;;;;;;5037075;28;20072;-32
2023/05/06 05:49:11;;;;;;;16.50;9.85;;;12.40;99.90;;;;;;5032456;28;20522;-33
2023/05/06 05:51:37;;;;;;;13.73;9.00;;;12.40;99.90;;;;;;5034732;28;20053;-33
2023/05/06 05:54:02;;;;;;;14.90;9.70;;;12.50;99.90;;;;;;5025057;28;20056;-33
2023/05/06 05:56:28;;;;;;;13.43;9.13;;;12.50;99.90;;;;;;5023320;28;20057;-33
2023/05/06 05:58:54;;;;;;;12.90;9.05;;;12.60;99.90;;;;;;5013787;28;20482;-33
2023/05/06 06:01:19;;;;;;;14.40;9.70;;;12.70;99.90;;;;;;5016355;28;20067;-33
2023/05/06 06:03:45;;;;;;;14.57;9.55;;;12.70;99.90;;;;;;5030529;28;20127;-33
2023/05/06 06:06:11;;;;;;;15.35;8.93;;;12.70;99.90;;;;;;5036871;28;20044;-33
2023/05/06 06:08:37;;;;;;;14.07;9.30;;;12.80;99.90;;;;;;5027858;28;20059;-33
2023/05/06 06:11:04;;;;;;;14.85;9.55;;;12.90;99.90;;;;;;5040589;28;20043;-33
2023/05/06 06:13:30;;;;;;;11.38;8.10;;;12.90;99.90;;;;;;5036556;28;20045;-33
2023/05/06 06:15:56;;;;;;;12.30;8.40;;;13.00;99.90;;;;;;5030894;28;20659;-33
2023/05/06 06:18:23;;;;;;;12.30;7.90;;;13.00;99.90;;;;;;5006281;28;20068;-33
2023/05/06 06:20:48;;;;;;;11.80;7.80;;;13.10;99.90;;;;;;5020070;28;20466;-33
2023/05/06 06:23:14;;;;;;;14.00;8.82;;;13.10;99.90;;;;;;5028759;28;20132;-33
2023/05/06 06:25:40;;;;;;;12.98;8.70;;;13.10;99.90;;;;;;5024937;28;20995;-33
2023/05/06 06:28:05;;;;;;;12.02;7.97;;;13.10;99.90;;;;;;5036604;28;20041;-33
2023/05/06 06:30:31;;;;;;;13.18;8.00;;;13.10;99.90;;;;;;5032613;28;20099;-33
2023/05/06 06:33:00;;;;;;;11.95;8.07;;;13.10;99.90;;;;;;5035723;28;20053;-33
2023/05/06 06:35:26;;;;;;;13.23;8.07;;;13.10;99.90;;;;;;5024601;28;20534;-33
2023/05/06 06:37:51;;;;;;;13.20;8.25;;;13.10;99.90;;;;;;5039833;28;20072;-33
2023/05/06 06:40:17;;;;;;;12.65;7.82;;;13.20;99.90;;;;;;5030688;28;20487;-33
2023/05/06 06:42:43;;;;;;;12.93;8.60;;;13.20;99.90;;;;;;5027810;28;20069;-33
2023/05/06 06:45:09;;;;;;;12.93;8.63;;;13.20;99.90;;;;;;5034693;28;20156;-33
2023/05/06 06:47:35;;;;;;;10.55;6.97;;;13.30;99.90;;;;;;5031383;28;20072;-33
2023/05/06 06:50:00;;;;;;;11.30;7.95;;;13.30;99.90;;;;;;5031748;28;20056;-33
2023/05/06 06:52:26;;;;;;;12.18;7.63;;;13.30;99.90;;;;;;5039206;28;20057;-32
2023/05/06 06:54:52;;;;;;;13.57;8.50;;;13.30;99.90;;;;;;5030297;28;20041;-33
2023/05/06 06:57:17;;;;;;;11.77;8.52;;;13.30;99.90;;;;;;5039186;28;20103;-32
2023/05/06 06:59:43;;;;;;;12.60;8.68;;;13.30;99.90;;;;;;5038008;28;20057;-33
2023/05/06 07:02:09;;;;;;;13.45;9.13;;;13.30;99.90;;;;;;5024581;28;20423;-33
2023/05/06 07:04:35;;;;;;;13.25;9.02;;;13.40;99.90;;;;;;5026514;28;20050;-33
2023/05/06 07:07:00;;;;;;;13.45;9.10;;;13.40;99.90;;;;;;5026715;28;20045;-32
2023/05/06 07:09:26;;;;;;;13.35;9.30;;;13.50;99.90;;;;;;5032954;28;20097;-32
2023/05/06 07:11:52;;;;;;;14.82;9.98;;;13.60;99.90;;;;;;5035074;28;20447;-33
2023/05/06 07:14:17;;;;;;;12.88;9.15;;;13.60;99.90;;;;;;5033937;28;20085;-33
2023/05/06 07:16:43;;;;;;;15.00;9.35;;;13.70;99.90;;;;;;5027787;28;20409;-33
2023/05/06 07:19:08;;;;;;;15.38;10.13;;;13.70;99.90;;;;;;5044734;28;20130;-33
2023/05/06 07:21:34;;;;;;;12.20;8.65;;;13.80;99.90;;;;;;5032000;28;20081;-33
2023/05/06 07:24:00;;;;;;;12.95;8.32;;;13.80;99.90;;;;;;5039118;28;20038;-33
2023/05/06 07:26:26;;;;;;;12.82;9.35;;;13.80;99.90;;;;;;5026808;28;20124;-33
2023/05/06 07:28:51;;;;;;;12.10;9.25;;;13.90;99.90;;;;;;5021998;28;20053;-33
2023/05/06 07:31:19;;;;;;;13.75;9.38;;;14.00;99.90;;;;;;5019555;28;20193;-33
2023/05/06 07:33:48;;;;;;;14.27;9.43;;;14.10;99.90;;;;;;5022488;28;20664;-33
2023/05/06 07:36:14;;;;;;;12.05;9.07;;;14.10;99.90;;;;;;5036315;28;20051;-33
2023/05/06 07:38:40;;;;;;;14.65;10.07;;;14.10;99.90;;;;;;5034591;28;20088;-33
2023/05/06 07:41:05;;;;;;;14.10;8.90;;;14.20;99.90;;;;;;5035330;28;20080;-33
2023/05/06 07:43:31;;;;;;;13.95;9.38;;;14.20;99.90;;;;;;5022003;28;20507;-33
2023/05/06 07:46:01;;;;;;;13.95;9.38;;;14.30;99.90;;;;;;5036303;28;20587;-33
2023/05/06 07:48:31;;;;;;;12.70;7.47;;;14.40;99.90;;;;;;5025508;28;20563;-33
2023/05/06 07:50:58;;;;;;;14.40;8.85;;;14.40;99.90;;;;;;5020949;28;20060;-33
2023/05/06 07:53:24;;;;;;;13.30;9.13;;;14.40;99.90;;;;;;5034095;28;20123;-33
2023/05/06 07:55:51;;;;;;;12.75;8.98;;;14.50;99.90;;;;;;5037187;28;20235;-33
2023/05/06 07:58:17;;;;;;;14.52;10.25;;;14.50;99.90;;;;;;5037163;28;20049;-33
2023/05/06 08:00:43;;;;;;;13.15;9.07;;;14.60;99.90;;;;;;5026613;28;20053;-33
2023/05/06 08:03:08;;;;;;;13.88;9.70;;;14.80;99.90;;;;;;5025679;28;20067;-33
2023/05/06 08:05:34;;;;;;;15.07;9.30;;;14.80;99.90;;;;;;5029897;28;20120;-33
2023/05/06 08:08:00;;;;;;;13.43;9.43;;;14.80;99.90;;;;;;5034292;28;20461;-33
2023/05/06 08:10:26;;;;;;;15.00;10.88;;;14.90;99.90;;;;;;5037437;28;20060;-33
2023/05/06 08:12:51;;;;;;;14.48;9.93;;;14.90;99.90;;;;;;5005565;28;20057;-33
2023/05/06 08:15:17;;;;;;;13.77;9.95;;;14.90;99.90;;;;;;5009186;28;20053;-33
2023/05/06 08:17:43;;;;;;;14.57;10.55;;;15.00;99.90;;;;;;5026921;28;20844;-33
2023/05/06 08:20:09;;;;;;;14.27;10.13;;;15.20;99.90;;;;;;5019609;28;20518;-33
2023/05/06 08:22:34;;;;;;;13.38;9.27;;;15.30;99.90;;;;;;5015768;28;20057;-33
2023/05/06 08:25:00;;;;;;;13.15;9.77;;;15.40;99.90;;;;;;5023730;28;20425;-33
2023/05/06 08:27:26;;;;;;;11.73;8.57;;;15.50;99.90;;;;;;5029090;28;20048;-33
2023/05/06 08:29:52;;;;;;;18.08;9.88;;;15.60;99.90;;;;;;5012580;28;20058;-33
2023/05/06 08:32:17;;;;;;;13.45;9.57;;;15.80;99.90;;;;;;5026175;28;20060;-33
2023/05/06 08:34:43;;;;;;;14.25;9.25;;;15.80;99.90;;;;;;5024343;28;20044;-33
2023/05/06 08:37:09;;;;;;;12.27;9.35;;;15.80;99.90;;;;;;5029506;28;20060;-33
2023/05/06 08:39:34;;;;;;;13.93;9.95;;;15.90;99.90;;;;;;5031227;28;20069;-33
2023/05/06 08:42:02;;;;;;;14.40;9.95;;;16.00;99.90;;;;;;5021040;28;20115;-33
2023/05/06 08:44:28;;;;;;;13.98;10.15;;;16.10;99.90;;;;;;5022956;28;20140;-33
2023/05/06 08:46:54;;;;;;;12.07;9.27;;;16.20;99.90;;;;;;5024765;28;20059;-33
2023/05/06 08:49:20;;;;;;;14.55;9.77;;;16.30;99.90;;;;;;5028248;28;20492;-33
2023/05/06 08:51:48;;;;;;;13.23;8.68;;;16.50;99.90;;;;;;5024651;28;20041;-34
2023/05/06 08:54:15;;;;;;;12.95;8.60;;;16.70;99.90;;;;;;5029509;28;20048;-34
2023/05/06 08:56:46;;;;;;;12.13;8.43;;;16.80;99.90;;;;;;5016795;28;20042;-34
2023/05/06 08:59:12;;;;;;;11.38;8.07;;;17.00;99.90;;;;;;5025297;28;20056;-34
2023/05/06 09:01:39;;;;;;;12.10;8.95;;;17.10;99.90;;;;;;5035545;28;20140;-34
2023/05/06 09:04:06;;;;;;;12.00;8.18;;;17.30;99.90;;;;;;5026864;28;20061;-33
2023/05/06 09:06:33;;;;;;;13.20;8.32;;;17.30;99.90;;;;;;5015850;28;20045;-34
2023/05/06 09:08:58;;;;;;;13.55;8.88;;;17.30;99.90;;;;;;5016576;28;20053;-34
2023/05/06 09:11:28;;;;;;;12.43;8.70;;;17.40;99.90;;;;;;5030222;28;20458;-33
2023/05/06 09:14:13;;;;;;;12.45;8.40;;;17.50;99.90;;;;;;5032353;28;20045;-34
2023/05/06 09:16:42;;;;;;;12.80;8.75;;;17.70;99.90;;;;;;5022001;28;20090;-34
2023/05/06 09:19:08;;;;;;;12.85;8.50;;;17.80;99.90;;;;;;5024688;28;20049;-34
2023/05/06 09:21:35;;;;;;;12.90;9.02;;;17.90;99.90;;;;;;5019758;28;20051;-34
2023/05/06 09:24:03;;;;;;;12.25;7.47;;;18.00;99.90;;;;;;5033258;28;20538;-34
2023/05/06 09:26:30;;;;;;;11.82;8.23;;;18.00;99.90;;;;;;5034445;28;20084;-34
2023/05/06 09:28:57;;;;;;;11.68;8.48;;;18.00;99.90;;;;;;5020915;28;20049;-33
2023/05/06 09:31:24;;;;;;;11.18;8.10;;;18.00;99.90;;;;;;5026193;28;20576;-34
2023/05/06 09:33:51;;;;;;;14.95;8.38;;;18.10;99.90;;;;;;5017017;28;20171;-33
2023/05/06 09:36:17;;;;;;;13.20;7.97;;;18.20;99.90;;;;;;5025081;28;20053;-33
2023/05/06 09:38:42;;;;;;;14.60;9.10;;;18.20;99.90;;;;;;5016850;28;20156;-33
2023/05/06 09:41:10;;;;;;;11.73;8.80;;;18.30;99.90;;;;;;5028281;28;20384;-33
2023/05/06 09:43:36;;;;;;;11.50;8.73;;;18.40;99.90;;;;;;5031299;28;20059;-34
2023/05/06 09:46:04;;;;;;;13.38;9.10;;;18.50;99.90;;;;;;5027062;28;20049;-34
2023/05/06 09:48:30;;;;;;;14.45;8.85;;;18.70;99.90;;;;;;5019127;28;20049;-34
2023/05/06 09:50:57;;;;;;;11.32;8.02;;;18.60;99.90;;;;;;5010084;28;20046;-34
2023/05/06 09:53:24;;;;;;;11.82;8.32;;;18.70;99.90;;;;;;5011578;28;20403;-34
2023/05/06 09:55:51;;;;;;;9.40;7.55;;;18.70;99.90;;;;;;5011317;28;20507;-34
2023/05/06 09:58:19;;;;;;;11.10;7.32;;;18.70;99.90;;;;;;5009628;28;20080;-34
2023/05/06 10:00:45;;;;;;;11.45;7.95;;;18.80;99.90;;;;;;5015520;28;20053;-34
2023/05/06 10:03:14;;;;;;;11.50;8.65;;;18.90;99.90;;;;;;5028054;28;20498;-34
2023/05/06 10:05:40;;;;;;;16.42;9.07;;;19.00;99.90;;;;;;5035296;28;20128;-34
2023/05/06 10:08:08;;;;;;;13.70;8.00;;;19.00;99.90;;;;;;5018650;28;20057;-34
2023/05/06 10:10:35;;;;;;;10.93;6.65;;;19.00;99.90;;;;;;5027599;28;20144;-34
2023/05/06 10:13:03;;;;;;;9.50;6.93;;;19.10;99.90;;;;;;5015009;28;20112;-34
2023/05/06 10:15:31;;;;;;;12.25;6.88;;;19.20;99.90;;;;;;5017919;28;20049;-34
2023/05/06 10:17:58;;;;;;;9.20;5.85;;;19.30;99.90;;;;;;5031793;28;20057;-34
2023/05/06 10:20:26;;;;;;;7.55;5.50;;;19.40;99.90;;;;;;5020846;28;20057;-34
2023/05/06 10:23:06;;;;;;;9.85;5.72;;;19.50;99.90;;;;;;5021022;28;20053;-34
2023/05/06 10:25:38;;;;;;;8.90;5.30;;;19.60;99.90;;;;;;5018871;28;20054;-34
2023/05/06 10:28:08;;;;;;;8.27;5.28;;;19.70;99.90;;;;;;5031685;28;20056;-34
2023/05/06 10:30:34;;;;;;;9.32;6.20;;;19.80;99.90;;;;;;5022242;28;20053;-34
2023/05/06 10:33:05;;;;;;;9.93;6.15;;;19.80;99.90;;;;;;5022443;28;20099;-34
2023/05/06 10:35:46;;;;;;;23.42;6.60;;;19.80;99.90;;;;;;5024494;28;20060;-34
2023/05/06 10:38:17;;;;;;;10.27;6.70;;;19.90;99.90;;;;;;5033883;28;20482;-34
2023/05/06 10:40:43;;;;;;;10.55;6.28;;;20.00;99.90;;;;;;5012846;28;20057;-34
2023/05/06 10:43:25;;;;;;;7.75;5.13;;;20.20;99.90;;;;;;5027719;28;20063;-34
2023/05/06 10:46:11;;;;;;;9.30;5.85;;;20.20;99.90;;;;;;5023142;28;20057;-34
2023/05/06 10:49:05;;;;;;;10.63;5.65;;;20.30;99.90;;;;;;5027008;28;20136;-34
2023/05/06 10:51:32;;;;;;;10.50;5.40;;;20.30;99.90;;;;;;5027594;28;20064;-34
2023/05/06 10:54:06;;;;;;;10.00;5.88;;;20.30;99.90;;;;;;5037707;28;20049;-33
2023/05/06 10:56:37;;;;;;;10.70;5.93;;;20.30;99.90;;;;;;5016127;28;20057;-33
2023/05/06 10:59:08;;;;;;;8.30;4.47;;;20.30;99.90;;;;;;5024248;28;20050;-33
2023/05/06 11:01:38;;;;;;;9.07;4.47;;;20.40;99.90;;;;;;5023021;28;20131;-34
2023/05/06 11:04:12;;;;;;;8.52;4.53;;;20.50;99.90;;;;;;5028829;28;20056;-33
2023/05/06 11:06:46;;;;;;;3.92;1.95;;;20.60;99.90;;;;;;5033462;28;20487;-34
2023/05/06 11:09:19;;;;;;;4.78;1.92;;;20.70;99.90;;;;;;5035551;28;20583;-34
2023/05/06 11:12:02;;;;;;;6.40;2.70;;;20.80;99.90;;;;;;5036905;28;20136;-33
2023/05/06 11:14:34;;;;;;;3.35;1.73;;;20.90;99.90;;;;;;5021295;28;20084;-33
2023/05/06 11:17:04;;;;;;;4.70;2.87;;;21.10;99.90;;;;;;5034058;28;20057;-33
2023/05/06 11:19:35;;;;;;;4.82;2.42;;;21.30;99.90;;;;;;5017965;28;20053;-33
2023/05/06 11:22:02;;;;;;;7.20;4.93;;;21.30;99.90;;;;;;5025210;28;20049;-33
2023/05/06 11:24:40;;;;;;;8.05;4.20;;;21.40;99.90;;;;;;5033503;28;20103;-33
2023/05/06 11:27:06;;;;;;;10.07;4.90;;;21.40;99.90;;;;;;5039847;28;20087;-34
2023/05/06 11:29:32;;;;;;;7.88;4.72;;;21.60;99.90;;;;;;5048935;28;20041;-34
2023/05/06 11:31:58;;;;;;;7.88;4.30;;;21.70;99.90;;;;;;5032990;28;20055;-34
2023/05/06 11:34:34;;;;;;;9.00;5.00;;;21.80;99.90;;;;;;5021565;28;20046;-34
2023/05/06 11:37:06;;;;;;;8.23;5.10;;;22.00;99.90;;;;;;5031372;28;20461;-34
2023/05/06 11:39:34;;;;;;;8.40;4.60;;;21.80;99.90;;;;;;5007108;28;20057;-33
2023/05/06 11:42:02;;;;;;;8.82;4.13;;;21.80;99.90;;;;;;5023073;28;20063;-33
2023/05/06 11:44:35;;;;;;;6.15;2.97;;;21.80;99.90;;;;;;5027742;28;20494;-33
2023/05/06 11:47:04;;;;;;;5.32;2.60;;;22.00;99.90;;;;;;5032770;28;20114;-33
2023/05/06 11:49:38;;;;;;;5.90;2.70;;;22.10;99.90;;;;;;5027587;28;20527;-33
2023/05/06 11:52:05;;;;;;;4.78;2.63;;;22.40;99.90;;;;;;5026590;28;20208;-34
2023/05/06 11:54:34;;;;;;;6.35;3.25;;;22.60;99.90;;;;;;5026307;28;20053;-34
2023/05/06 11:57:00;;;;;;;7.43;2.92;;;22.70;99.90;;;;;;5016761;28;20503;-33
2023/05/06 11:59:30;;;;;;;10.20;3.45;;;22.70;99.90;;;;;;5018323;28;20076;-33
2023/05/06 12:01:58;;;;;;;6.95;3.30;;;22.80;99.90;;;;;;5018442;28;20136;-33
2023/05/06 12:04:23;;;;;;;6.45;3.95;;;22.90;99.90;;;;;;5038019;28;20044;-33
2023/05/06 12:06:49;;;;;;;8.50;4.97;;;22.90;99.90;;;;;;5024109;28;20056;-33
2023/05/06 12:09:15;;;;;;;10.65;4.28;;;23.00;99.90;;;;;;5014415;28;20922;-33
2023/05/06 12:11:42;;;;;;;5.93;3.78;;;22.90;99.90;;;;;;5025714;28;20054;-33
2023/05/06 12:14:09;;;;;;;9.13;4.20;;;22.70;99.90;;;;;;5014688;28;20120;-33
2023/05/06 12:16:36;;;;;;;6.53;3.13;;;22.60;99.90;;;;;;5036718;28;20091;-36
2023/05/06 12:19:02;;;;;;;5.47;3.67;;;22.40;99.90;;;;;;5026133;28;20042;-36
2023/05/06 12:21:29;;;;;;;4.28;2.70;;;22.20;99.90;;;;;;5035094;28;20052;-36
2023/05/06 12:23:59;;;;;;;4.95;2.55;;;22.10;99.90;;;;;;5033390;28;20162;-36
2023/05/06 12:26:30;;;;;;;4.65;2.70;;;21.80;99.90;;;;;;5031068;28;20541;-36
2023/05/06 12:29:08;;;;;;;5.03;2.25;;;21.50;99.90;;;;;;5027338;28;20054;-36
2023/05/06 12:31:34;;;;;;;5.55;2.45;;;21.40;99.90;;;;;;5019660;28;20057;-36
2023/05/06 12:34:00;;;;;;;5.70;2.47;;;21.20;99.90;;;;;;5021707;28;20053;-36
2023/05/06 12:36:25;;;;;;;6.45;2.70;;;21.10;99.90;;;;;;5024775;28;20071;-35
2023/05/06 12:38:52;;;;;;;5.85;2.42;;;21.00;99.90;;;;;;5012320;28;20061;-36
2023/05/06 12:41:20;;;;;;;6.45;3.17;;;20.90;99.90;;;;;;5036281;28;20132;-37
2023/05/06 12:43:45;;;;;;;5.40;2.20;;;20.90;99.90;;;;;;5018761;28;20041;-36